Tarazona, Spain
Current Conditions -  °F | °C
As of 5:30 PM on Wednesday 26 Nov 2014 (Local Time) from LEZG Reporting Station
Broken Clouds Broken Clouds  
Wind Chill: 57°   Ceiling: 8000
Heat Index: 57°   Visibility: 6mi
Dew Point: 52°   Wind: 7mph
Humidity: 82%   Direction: 310°NW
Pressure: 29.83"   Gusts: NA
Location:  41.9°N, 1.73°W
Report Text: LEZG 261630Z 31006KT 9999 FEW015 BKN080 14/11 Q1010
Loading
Personal Weather Stations






























Interactive Weather Map New forecast layout! Learn more

10-Day Weather Forecast

Advertisements
Track Severe Weather on mobile